Varnadiep — PBIB — position and weather

sailwx.info

Track history (hours):
 
Tides and Currents Weather Stations Pressure Air Temp Water Temp Dewpoint Dewpoint Depression Visibility Wind Speed Wind Dir Waves Ship Positions

Varnadiep

Last reported at 2014-Dec-22 23:26 UTC. Time now 2014-Dec-23 00:10 UTC.
Position N 52°35' E 003°50'.

Length 118 m; draft 7.5 m.

Type: Cargo ship. MMSI: 244729000.

Date/timePositionNaut miles runAvg speedWind from/ knotsBaromVisibWave heightAir tempDewpointWater temp
2014-Dec-22 23:26N 52°35' E 003°50'1211.3
2014-Dec-22 22:20N 52°26' E 003°36'5911.4
2014-Dec-22 17:08N 51°42' E 002°32'712.9
2014-Dec-22 16:33N 51°36' E 002°24'1313.2
2014-Dec-22 15:33N 51°26' E 002°10'1312.9
2014-Dec-22 14:34N 51°14' E 002°03'1514.6
2014-Dec-22 13:34N 51°05' E 001°44'31212.5
2014-Dec-21 12:33N 48°48' W 005°31'3612.0
2014-Dec-21 09:33N 48°18' W 005°59'1111.3
2014-Dec-21 08:33N 48°07' W 006°07'1111.0
2014-Dec-21 07:33N 47°57' W 006°13'2211.0
2014-Dec-21 05:33N 47°38' W 006°28'1211.6
2014-Dec-21 04:33N 47°28' W 006°37'51711.5
2014-Dec-19 07:29N 39°10' W 009°52'1111.2
2014-Dec-19 06:32N 38°59' W 009°51'1111.2
2014-Dec-19 05:33N 38°49' W 009°52'1110.9
2014-Dec-19 04:33N 38°38' W 009°50'1111.2
2014-Dec-19 03:33N 38°27' W 009°46'1111.2
2014-Dec-19 02:33N 38°16' W 009°43'1111.2
2014-Dec-19 01:33N 38°05' W 009°40'1111.0
2014-Dec-19 00:33N 37°54' W 009°37'1111.0
2014-Dec-18 23:33N 37°43' W 009°34'1111.3
2014-Dec-18 22:33N 37°32' W 009°30'1111.1
2014-Dec-18 21:32N 37°22' W 009°27'1111.2
2014-Dec-18 20:32N 37°11' W 009°24'1211.5
2014-Dec-18 19:29N 36°59' W 009°20'1611.6
2014-Dec-18 18:06N 36°46' W 009°09'1912.3
2014-Dec-18 16:33N 36°39' W 008°47'1312.4
2014-Dec-18 15:31N 36°35' W 008°32'14612.0
2014-Dec-18 03:22N 35°58' W 005°37'7 9.0
2014-Dec-18 02:32N 36°00' W 005°28'10 9.9
2014-Dec-18 01:33N 35°54' W 005°19'1 0.5
2014-Dec-18 00:31N 35°54' W 005°18'0 0.0
2014-Dec-17 23:31N 35°54' W 005°18'0 0.0
2014-Dec-17 22:28N 35°54' W 005°18'0 0.0
2014-Dec-17 21:31N 35°54' W 005°18'1 1.4
2014-Dec-17 20:33N 35°55' W 005°19'0 0.1
2014-Dec-17 19:33N 35°55' W 005°19'22212.2
2014-Dec-17 01:21N 37°15' W 001°01'1013.1
2014-Dec-17 00:33N 37°22' W 000°52'1313.4
2014-Dec-16 23:33N 37°31' W 000°39'1313.2
2014-Dec-16 22:33N 37°41' W 000°28'1313.2
2014-Dec-16 21:32N 37°52' W 000°19'13312.9
2014-Dec-16 11:11N 39°42' E 001°18'812.6
2014-Dec-16 10:33N 39°48' E 001°24'1312.6
2014-Dec-16 09:33N 39°59' E 001°33'1312.7
2014-Dec-16 08:33N 40°09' E 001°44'1312.7
2014-Dec-16 07:33N 40°19' E 001°54'1312.6
2014-Dec-16 06:34N 40°29' E 002°03'1312.8
2014-Dec-16 05:33N 40°40' E 002°13'1312.5
2014-Dec-16 04:30N 40°50' E 002°23'1212.8
2014-Dec-16 03:33N 41°00' E 002°32'6812.9
2014-Dec-15 22:15N 41°54' E 003°28'1012.9
2014-Dec-15 21:29N 42°01' E 003°37'1512.6
2014-Dec-15 20:16N 42°12' E 003°52'1012.6
2014-Dec-15 19:31N 42°21' E 003°57'1612.7
2014-Dec-15 18:14N 42°34' E 004°09'1413.2
2014-Dec-15 17:10N 42°44' E 004°23'1213.0
2014-Dec-15 16:16N 42°52' E 004°34'1113.8
2014-Dec-15 15:29N 42°60' E 004°45'1212.0
2014-Dec-15 14:27N 43°09' E 004°57'1011.4
2014-Dec-15 13:33N 43°19' E 004°59'6 5.3
2014-Dec-15 12:31N 43°24' E 005°01'0 0.0
2014-Dec-15 11:31N 43°24' E 005°01'0 0.0
2014-Dec-15 10:31N 43°24' E 005°01'0 0.0
2014-Dec-15 09:31N 43°24' E 005°01'0 0.0
2014-Dec-15 08:31N 43°24' E 005°01'0 0.0
2014-Dec-15 07:31N 43°24' E 005°01'0 0.0
2014-Dec-15 06:31N 43°24' E 005°01'0 0.0
2014-Dec-15 05:31N 43°24' E 005°01'0 0.0
2014-Dec-15 04:31N 43°24' E 005°01'0 0.0
2014-Dec-15 03:31N 43°24' E 005°01'0 0.0
2014-Dec-15 02:31N 43°24' E 005°01'0 0.0
2014-Dec-15 01:31N 43°24' E 005°01'0 0.0
2014-Dec-15 00:31N 43°24' E 005°01'0 0.0
2014-Dec-14 23:31N 43°24' E 005°01'0 0.0
2014-Dec-14 22:31N 43°24' E 005°01'0 0.0
2014-Dec-14 21:31N 43°24' E 005°01'0 0.0
2014-Dec-14 20:31N 43°24' E 005°01'0 0.0
2014-Dec-14 19:31N 43°24' E 005°01'0 0.0
2014-Dec-14 18:28N 43°24' E 005°01'0 0.0
2014-Dec-14 17:31N 43°24' E 005°01'0 0.0
2014-Dec-14 16:31N 43°24' E 005°01'0 0.0
2014-Dec-14 15:31N 43°24' E 005°01'0 0.0
2014-Dec-14 14:31N 43°24' E 005°01'0 0.0
2014-Dec-14 13:31N 43°24' E 005°01'0 0.0
2014-Dec-14 12:31N 43°24' E 005°01'0 0.0
2014-Dec-14 11:31N 43°24' E 005°01'0 0.0
2014-Dec-14 10:31N 43°24' E 005°01'0 0.0
2014-Dec-14 09:31N 43°24' E 005°01'0 0.0
2014-Dec-14 08:31N 43°24' E 005°01'0 0.0
2014-Dec-14 07:31N 43°24' E 005°01'0 0.0
2014-Dec-14 06:31N 43°24' E 005°01'0 0.0
2014-Dec-14 05:28N 43°24' E 005°01'0 0.0
2014-Dec-14 04:31N 43°24' E 005°01'0 0.0
2014-Dec-14 03:31N 43°24' E 005°01'0 0.0
2014-Dec-14 02:31N 43°24' E 005°01'0 0.0
2014-Dec-14 01:31N 43°24' E 005°01'0 0.0
2014-Dec-14 00:31N 43°24' E 005°01'0 0.0
2014-Dec-13 23:31N 43°24' E 005°01'0 0.0
2014-Dec-13 22:31N 43°24' E 005°01'0 0.0
2014-Dec-13 21:31N 43°24' E 005°01'0 0.0
2014-Dec-13 20:31N 43°24' E 005°01'0 0.0
2014-Dec-13 19:31N 43°24' E 005°01'0 0.0
2014-Dec-13 18:31N 43°24' E 005°01'0 0.0
2014-Dec-13 17:31N 43°24' E 005°01'0 0.0
2014-Dec-13 16:31N 43°24' E 005°01'0 0.0
2014-Dec-13 15:31N 43°24' E 005°01'0 0.0
2014-Dec-13 14:31N 43°24' E 005°01'0 0.0
2014-Dec-13 13:31N 43°24' E 005°01'0 0.0
2014-Dec-13 12:31N 43°24' E 005°01'0 0.0
2014-Dec-13 11:31N 43°24' E 005°01'0 0.0
2014-Dec-13 10:31N 43°24' E 005°01'0 0.0
2014-Dec-13 09:31N 43°24' E 005°01'0 0.0
2014-Dec-13 08:31N 43°24' E 005°01'0 0.0
2014-Dec-13 07:28N 43°24' E 005°01'0 0.0
2014-Dec-13 06:31N 43°24' E 005°01'0 0.0
2014-Dec-13 05:31N 43°24' E 005°01'0 0.0
2014-Dec-13 04:31N 43°24' E 005°01'0 0.0
2014-Dec-13 03:31N 43°24' E 005°01'0 0.0
2014-Dec-13 02:28N 43°24' E 005°01'0 0.0
2014-Dec-13 01:28N 43°24' E 005°01'0 0.0
2014-Dec-13 00:31N 43°24' E 005°01'0 0.0
2014-Dec-12 23:31N 43°24' E 005°01'  
Track history (hours):
 
Tides and Currents Weather Stations Pressure Air Temp Water Temp Dewpoint Dewpoint Depression Visibility Wind Speed Wind Dir Waves Ship Positions

Varnadiep

Last reported at 2014-Dec-22 23:26 UTC. Time now 2014-Dec-23 00:10 UTC.
Position N 52°35' E 003°50'.

Length 118 m; draft 7.5 m.

Type: Cargo ship. MMSI: 244729000.

Date/timePositionNaut miles runAvg speedWind from/ knotsBaromVisibWave heightAir tempDewpointWater temp
2014-Dec-22 23:26N 52°35' E 003°50'1211.3
2014-Dec-22 22:20N 52°26' E 003°36'5911.4
2014-Dec-22 17:08N 51°42' E 002°32'712.9
2014-Dec-22 16:33N 51°36' E 002°24'1313.2
2014-Dec-22 15:33N 51°26' E 002°10'1312.9
2014-Dec-22 14:34N 51°14' E 002°03'1514.6
2014-Dec-22 13:34N 51°05' E 001°44'31212.5
2014-Dec-21 12:33N 48°48' W 005°31'3612.0
2014-Dec-21 09:33N 48°18' W 005°59'1111.3
2014-Dec-21 08:33N 48°07' W 006°07'1111.0
2014-Dec-21 07:33N 47°57' W 006°13'2211.0
2014-Dec-21 05:33N 47°38' W 006°28'1211.6
2014-Dec-21 04:33N 47°28' W 006°37'51711.5
2014-Dec-19 07:29N 39°10' W 009°52'1111.2
2014-Dec-19 06:32N 38°59' W 009°51'1111.2
2014-Dec-19 05:33N 38°49' W 009°52'1110.9
2014-Dec-19 04:33N 38°38' W 009°50'1111.2
2014-Dec-19 03:33N 38°27' W 009°46'1111.2
2014-Dec-19 02:33N 38°16' W 009°43'1111.2
2014-Dec-19 01:33N 38°05' W 009°40'1111.0
2014-Dec-19 00:33N 37°54' W 009°37'1111.0
2014-Dec-18 23:33N 37°43' W 009°34'1111.3
2014-Dec-18 22:33N 37°32' W 009°30'1111.1
2014-Dec-18 21:32N 37°22' W 009°27'1111.2
2014-Dec-18 20:32N 37°11' W 009°24'1211.5
2014-Dec-18 19:29N 36°59' W 009°20'1611.6
2014-Dec-18 18:06N 36°46' W 009°09'1912.3
2014-Dec-18 16:33N 36°39' W 008°47'1312.4
2014-Dec-18 15:31N 36°35' W 008°32'14612.0
2014-Dec-18 03:22N 35°58' W 005°37'7 9.0
2014-Dec-18 02:32N 36°00' W 005°28'10 9.9
2014-Dec-18 01:33N 35°54' W 005°19'1 0.5
2014-Dec-18 00:31N 35°54' W 005°18'0 0.0
2014-Dec-17 23:31N 35°54' W 005°18'0 0.0
2014-Dec-17 22:28N 35°54' W 005°18'0 0.0
2014-Dec-17 21:31N 35°54' W 005°18'1 1.4
2014-Dec-17 20:33N 35°55' W 005°19'0 0.1
2014-Dec-17 19:33N 35°55' W 005°19'22212.2
2014-Dec-17 01:21N 37°15' W 001°01'1013.1
2014-Dec-17 00:33N 37°22' W 000°52'1313.4
2014-Dec-16 23:33N 37°31' W 000°39'1313.2
2014-Dec-16 22:33N 37°41' W 000°28'1313.2
2014-Dec-16 21:32N 37°52' W 000°19'13312.9
2014-Dec-16 11:11N 39°42' E 001°18'812.6
2014-Dec-16 10:33N 39°48' E 001°24'1312.6
2014-Dec-16 09:33N 39°59' E 001°33'1312.7
2014-Dec-16 08:33N 40°09' E 001°44'1312.7
2014-Dec-16 07:33N 40°19' E 001°54'1312.6
2014-Dec-16 06:34N 40°29' E 002°03'1312.8
2014-Dec-16 05:33N 40°40' E 002°13'1312.5
2014-Dec-16 04:30N 40°50' E 002°23'1212.8
2014-Dec-16 03:33N 41°00' E 002°32'6812.9
2014-Dec-15 22:15N 41°54' E 003°28'1012.9
2014-Dec-15 21:29N 42°01' E 003°37'1512.6
2014-Dec-15 20:16N 42°12' E 003°52'1012.6
2014-Dec-15 19:31N 42°21' E 003°57'1612.7
2014-Dec-15 18:14N 42°34' E 004°09'1413.2
2014-Dec-15 17:10N 42°44' E 004°23'1213.0
2014-Dec-15 16:16N 42°52' E 004°34'1113.8
2014-Dec-15 15:29N 42°60' E 004°45'1212.0
2014-Dec-15 14:27N 43°09' E 004°57'1011.4
2014-Dec-15 13:33N 43°19' E 004°59'6 5.3
2014-Dec-15 12:31N 43°24' E 005°01'0 0.0
2014-Dec-15 11:31N 43°24' E 005°01'0 0.0
2014-Dec-15 10:31N 43°24' E 005°01'0 0.0
2014-Dec-15 09:31N 43°24' E 005°01'0 0.0
2014-Dec-15 08:31N 43°24' E 005°01'0 0.0
2014-Dec-15 07:31N 43°24' E 005°01'0 0.0
2014-Dec-15 06:31N 43°24' E 005°01'0 0.0
2014-Dec-15 05:31N 43°24' E 005°01'0 0.0
2014-Dec-15 04:31N 43°24' E 005°01'0 0.0
2014-Dec-15 03:31N 43°24' E 005°01'0 0.0
2014-Dec-15 02:31N 43°24' E 005°01'0 0.0
2014-Dec-15 01:31N 43°24' E 005°01'0 0.0
2014-Dec-15 00:31N 43°24' E 005°01'0 0.0
2014-Dec-14 23:31N 43°24' E 005°01'0 0.0
2014-Dec-14 22:31N 43°24' E 005°01'0 0.0
2014-Dec-14 21:31N 43°24' E 005°01'0 0.0
2014-Dec-14 20:31N 43°24' E 005°01'0 0.0
2014-Dec-14 19:31N 43°24' E 005°01'0 0.0
2014-Dec-14 18:28N 43°24' E 005°01'0 0.0
2014-Dec-14 17:31N 43°24' E 005°01'0 0.0
2014-Dec-14 16:31N 43°24' E 005°01'0 0.0
2014-Dec-14 15:31N 43°24' E 005°01'0 0.0
2014-Dec-14 14:31N 43°24' E 005°01'0 0.0
2014-Dec-14 13:31N 43°24' E 005°01'0 0.0
2014-Dec-14 12:31N 43°24' E 005°01'0 0.0
2014-Dec-14 11:31N 43°24' E 005°01'0 0.0
2014-Dec-14 10:31N 43°24' E 005°01'0 0.0
2014-Dec-14 09:31N 43°24' E 005°01'0 0.0
2014-Dec-14 08:31N 43°24' E 005°01'0 0.0
2014-Dec-14 07:31N 43°24' E 005°01'0 0.0
2014-Dec-14 06:31N 43°24' E 005°01'0 0.0
2014-Dec-14 05:28N 43°24' E 005°01'0 0.0
2014-Dec-14 04:31N 43°24' E 005°01'0 0.0
2014-Dec-14 03:31N 43°24' E 005°01'0 0.0
2014-Dec-14 02:31N 43°24' E 005°01'0 0.0
2014-Dec-14 01:31N 43°24' E 005°01'0 0.0
2014-Dec-14 00:31N 43°24' E 005°01'0 0.0
2014-Dec-13 23:31N 43°24' E 005°01'0 0.0
2014-Dec-13 22:31N 43°24' E 005°01'0 0.0
2014-Dec-13 21:31N 43°24' E 005°01'0 0.0
2014-Dec-13 20:31N 43°24' E 005°01'0 0.0
2014-Dec-13 19:31N 43°24' E 005°01'0 0.0
2014-Dec-13 18:31N 43°24' E 005°01'0 0.0
2014-Dec-13 17:31N 43°24' E 005°01'0 0.0
2014-Dec-13 16:31N 43°24' E 005°01'0 0.0
2014-Dec-13 15:31N 43°24' E 005°01'0 0.0
2014-Dec-13 14:31N 43°24' E 005°01'0 0.0
2014-Dec-13 13:31N 43°24' E 005°01'0 0.0
2014-Dec-13 12:31N 43°24' E 005°01'0 0.0
2014-Dec-13 11:31N 43°24' E 005°01'0 0.0
2014-Dec-13 10:31N 43°24' E 005°01'0 0.0
2014-Dec-13 09:31N 43°24' E 005°01'0 0.0
2014-Dec-13 08:31N 43°24' E 005°01'0 0.0
2014-Dec-13 07:28N 43°24' E 005°01'0 0.0
2014-Dec-13 06:31N 43°24' E 005°01'0 0.0
2014-Dec-13 05:31N 43°24' E 005°01'0 0.0
2014-Dec-13 04:31N 43°24' E 005°01'0 0.0
2014-Dec-13 03:31N 43°24' E 005°01'0 0.0
2014-Dec-13 02:28N 43°24' E 005°01'0 0.0
2014-Dec-13 01:28N 43°24' E 005°01'0 0.0
2014-Dec-13 00:31N 43°24' E 005°01'0 0.0
2014-Dec-12 23:31N 43°24' E 005°01'  

Dump ship's entire track history